This is the latest recevied weather packets stored in our database for station/object DO1BDB-12. If no packets are shown the sender has not sent any weather packets the latest 10 day(s).
| Time | Temp. | Humidity | Pressure | Rain* | Wind** | Luminosity | Snow |
|---|---|---|---|---|---|---|---|
| 1777618660 | 30.56° C | 23% | 103 hPa | - | - | - | - |
| 1777618594 | 29.44° C | 24% | 102.9 hPa | - | - | - | - |
| 1777618528 | 32.78° C | 21% | 102.9 hPa | - | - | - | - |
| 1777618463 | 31.11° C | 22% | 102.9 hPa | - | - | - | - |
| 1777618397 | 31.67° C | 22% | 102.9 hPa | - | - | - | - |
| 1777618331 | 28.33° C | 25% | 103 hPa | - | - | - | - |
| 1777618265 | 30.56° C | 22% | 102.9 hPa | - | - | - | - |
| 1777618199 | 27.78° C | 25% | 103 hPa | - | - | - | - |
| 1777618133 | 26.11° C | 25% | 103 hPa | - | - | - | - |
| 1777618067 | 33.33° C | 20% | 102.9 hPa | - | - | - | - |
| 1777618002 | 32.78° C | 20% | 102.9 hPa | - | - | - | - |
| 1777617936 | 31.67° C | 23% | 102.9 hPa | - | - | - | - |
| 1777617870 | 28.89° C | 24% | 103 hPa | - | - | - | - |
| 1777617804 | 30° C | 22% | 103 hPa | - | - | - | - |
| 1777617738 | 29.44° C | 24% | 103 hPa | - | - | - | - |
| 1777617672 | 28.89° C | 24% | 103 hPa | - | - | - | - |
| 1777617606 | 28.33° C | 25% | 103 hPa | - | - | - | - |
| 1777617541 | 29.44° C | 23% | 103 hPa | - | - | - | - |
| 1777617475 | 29.44° C | 23% | 103 hPa | - | - | - | - |
| 1777617409 | 28.89° C | 24% | 103 hPa | - | - | - | - |
| 1777617343 | 27.22° C | 27% | 103 hPa | - | - | - | - |
| 1777617277 | 25° C | 31% | 103 hPa | - | - | - | - |
| 1777617211 | 22.78° C | 29% | 103 hPa | - | - | - | - |
| 1777617146 | 31.67° C | 21% | 102.9 hPa | - | - | - | - |
| 1777617080 | 30.56° C | 22% | 103 hPa | - | - | - | - |
* Rain since midnight (hover to see other rain measurements)
** Current wind speed in m/s (hover to see current wind gust speed)